createdAt,value
2018-04-18T00:00:10.109Z,11.30
2018-04-18T00:02:37.603Z,11.36
2018-04-18T00:05:05.089Z,11.52
2018-04-18T00:07:32.600Z,11.37
2018-04-18T00:10:00.112Z,11.47
2018-04-18T00:12:27.868Z,11.46
2018-04-18T00:14:55.357Z,11.33
2018-04-18T00:17:22.845Z,11.47
2018-04-18T00:19:50.353Z,11.29
2018-04-18T00:22:17.845Z,11.43
2018-04-18T00:24:45.353Z,11.52
2018-04-18T00:27:12.862Z,11.39
2018-04-18T00:29:40.397Z,11.28
2018-04-18T00:32:07.881Z,11.30
2018-04-18T00:34:35.370Z,11.29
2018-04-18T00:37:02.899Z,11.05
2018-04-18T00:39:30.393Z,10.97
2018-04-18T00:41:58.305Z,11.06
2018-04-18T00:44:25.801Z,11.00
2018-04-18T00:46:53.293Z,10.99
2018-04-18T00:49:20.805Z,10.92
2018-04-18T00:51:49.165Z,10.81
2018-04-18T00:54:16.934Z,10.72
2018-04-18T00:56:44.416Z,10.65
2018-04-18T00:59:11.905Z,10.78
2018-04-18T01:01:39.437Z,10.58
2018-04-18T01:04:06.929Z,10.58
2018-04-18T01:06:34.642Z,10.62
2018-04-18T01:09:02.128Z,10.49
2018-04-18T01:11:29.640Z,10.67
2018-04-18T01:13:57.161Z,10.65
2018-04-18T01:16:24.649Z,10.52
2018-04-18T01:18:52.384Z,10.38
2018-04-18T01:21:19.873Z,10.28
2018-04-18T01:23:47.356Z,10.36
2018-04-18T01:26:14.862Z,10.24
2018-04-18T01:28:42.356Z,10.36
2018-04-18T01:31:10.057Z,10.20
2018-04-18T01:33:37.549Z,10.01
2018-04-18T01:36:05.057Z,10.16
2018-04-18T01:38:32.569Z,10.17
2018-04-18T01:41:00.069Z,9.90
2018-04-18T01:43:27.712Z,9.99
2018-04-18T01:45:55.193Z,10.04
2018-04-18T01:48:22.681Z,10.19
2018-04-18T01:50:50.191Z,10.17
2018-04-18T01:53:17.701Z,10.09
2018-04-18T01:55:45.372Z,10.01
2018-04-18T01:58:12.848Z,10.01
2018-04-18T02:00:40.337Z,9.88
2018-04-18T02:03:07.849Z,9.64
2018-04-18T02:05:35.357Z,9.75
2018-04-18T02:08:03.146Z,9.63
2018-04-18T02:10:30.629Z,9.85
2018-04-18T02:12:58.124Z,9.65
2018-04-18T02:15:25.624Z,9.63
2018-04-18T02:17:53.100Z,9.74
2018-04-18T02:20:20.884Z,9.80
2018-04-18T02:22:48.359Z,9.70
2018-04-18T02:25:15.828Z,9.53
2018-04-18T02:27:43.357Z,9.50
2018-04-18T02:30:10.833Z,9.53
2018-04-18T02:32:39.176Z,9.31
2018-04-18T02:35:06.655Z,9.43
2018-04-18T02:37:34.146Z,9.32
2018-04-18T02:40:01.686Z,9.35
2018-04-18T02:42:29.162Z,9.42
2018-04-18T02:44:56.927Z,9.42
2018-04-18T02:47:24.421Z,9.36
2018-04-18T02:49:51.897Z,9.35
2018-04-18T02:52:19.409Z,9.65
2018-04-18T02:54:46.918Z,9.54
2018-04-18T02:57:14.557Z,9.39
2018-04-18T02:59:42.037Z,9.29
2018-04-18T03:02:09.675Z,9.21
2018-04-18T03:04:37.189Z,9.04
2018-04-18T03:07:04.666Z,8.94
2018-04-18T03:09:32.475Z,8.82
2018-04-18T03:11:59.953Z,8.94
2018-04-18T03:14:27.433Z,8.97
2018-04-18T03:16:54.929Z,8.83
2018-04-18T03:19:22.405Z,8.89
2018-04-18T03:21:50.189Z,8.76
2018-04-18T03:24:17.669Z,8.71
2018-04-18T03:26:45.150Z,8.86
2018-04-18T03:29:12.669Z,8.63
2018-04-18T03:31:40.147Z,8.80
2018-04-18T03:34:07.833Z,8.64
2018-04-18T03:36:35.311Z,8.45
2018-04-18T03:39:02.785Z,8.63
2018-04-18T03:41:30.305Z,8.55
2018-04-18T03:43:57.797Z,8.57
2018-04-18T03:46:25.700Z,8.63
2018-04-18T03:48:53.193Z,8.84
2018-04-18T03:51:20.669Z,8.61
2018-04-18T03:53:48.194Z,8.85
2018-04-18T03:56:15.702Z,8.89
2018-04-18T03:58:43.349Z,8.70
2018-04-18T04:01:10.846Z,8.46
2018-04-18T04:03:38.325Z,8.55
2018-04-18T04:06:05.830Z,8.59
2018-04-18T04:08:33.308Z,8.71
2018-04-18T04:11:01.007Z,8.68
2018-04-18T04:13:28.493Z,8.82
2018-04-18T04:15:55.983Z,8.79
2018-04-18T04:18:35.293Z,8.70
2018-04-18T04:21:14.666Z,8.57
2018-04-18T04:23:54.049Z,8.53
2018-04-18T04:26:21.525Z,8.48
2018-04-18T04:28:49.241Z,8.52
2018-04-18T04:31:17.613Z,8.63
2018-04-18T04:33:45.105Z,8.63
2018-04-18T04:36:12.630Z,8.55
2018-04-18T04:38:40.109Z,8.53
2018-04-18T04:41:07.628Z,8.55
2018-04-18T04:43:35.110Z,8.37
2018-04-18T04:46:02.584Z,8.47
2018-04-18T04:48:30.085Z,8.55
2018-04-18T04:50:57.585Z,8.76
2018-04-18T04:53:25.105Z,8.75
2018-04-18T04:55:52.582Z,8.78
2018-04-18T04:58:20.070Z,8.77
2018-04-18T05:00:47.577Z,8.65
2018-04-18T05:03:15.077Z,8.69
2018-04-18T05:05:42.597Z,8.79
2018-04-18T05:08:10.078Z,8.85
2018-04-18T05:10:37.560Z,8.84
2018-04-18T05:13:05.105Z,9.23
2018-04-18T05:15:32.577Z,9.39
2018-04-18T05:18:00.270Z,9.55
2018-04-18T05:20:27.813Z,9.81
2018-04-18T05:22:55.381Z,9.90
2018-04-18T05:25:22.876Z,9.97
2018-04-18T05:27:50.364Z,10.01
2018-04-18T05:30:17.890Z,10.20
2018-04-18T05:32:45.365Z,10.51
2018-04-18T05:35:12.841Z,10.50
2018-04-18T05:37:40.354Z,10.89
2018-04-18T05:40:07.865Z,11.11
2018-04-18T05:42:35.590Z,11.35
2018-04-18T05:45:03.097Z,11.63
2018-04-18T05:47:30.581Z,12.17
2018-04-18T05:49:58.084Z,12.04
2018-04-18T05:52:25.570Z,12.27
2018-04-18T05:54:53.104Z,12.36
2018-04-18T05:57:20.580Z,12.68
2018-04-18T05:59:48.057Z,12.84
2018-04-18T06:02:15.568Z,12.72
2018-04-18T06:04:43.076Z,12.74
2018-04-18T06:07:10.779Z,12.74
2018-04-18T06:09:38.261Z,12.67
2018-04-18T06:12:05.750Z,12.66
2018-04-18T06:14:33.277Z,12.76
2018-04-18T06:17:00.781Z,12.66
2018-04-18T06:19:28.549Z,12.64
2018-04-18T06:21:56.029Z,12.83
2018-04-18T06:24:23.529Z,12.82
2018-04-18T06:26:51.054Z,12.87
2018-04-18T06:29:18.544Z,12.70
2018-04-18T06:31:46.073Z,12.86
2018-04-18T06:34:13.561Z,12.89
2018-04-18T06:36:41.049Z,12.96
2018-04-18T06:39:08.580Z,12.96
2018-04-18T06:41:36.081Z,13.05
2018-04-18T06:44:03.600Z,13.07
2018-04-18T06:46:31.085Z,13.54
2018-04-18T06:48:58.561Z,13.59
2018-04-18T06:51:26.096Z,13.27
2018-04-18T06:53:53.589Z,13.18
2018-04-18T06:56:21.322Z,13.34
2018-04-18T06:58:48.805Z,13.41
2018-04-18T07:01:16.304Z,13.42
2018-04-18T07:03:43.836Z,13.68
2018-04-18T07:06:11.420Z,13.87
2018-04-18T07:08:39.300Z,13.99
2018-04-18T07:11:06.836Z,13.87
2018-04-18T07:13:34.343Z,13.93
2018-04-18T07:16:01.853Z,14.04
2018-04-18T07:18:29.341Z,13.98
2018-04-18T07:20:56.873Z,14.23
2018-04-18T07:23:24.361Z,14.35
2018-04-18T07:25:51.872Z,14.10
2018-04-18T07:28:19.388Z,14.96
2018-04-18T07:30:46.889Z,15.00
2018-04-18T07:33:14.440Z,14.65
2018-04-18T07:35:41.930Z,15.10
2018-04-18T07:38:09.419Z,15.31
2018-04-18T07:40:36.952Z,15.11
2018-04-18T07:43:04.440Z,15.71
2018-04-18T07:45:32.109Z,15.69
2018-04-18T07:47:59.592Z,15.23
2018-04-18T07:50:27.077Z,15.72
2018-04-18T07:52:54.612Z,15.88
2018-04-18T07:55:22.104Z,16.49
2018-04-18T07:57:49.761Z,16.24
2018-04-18T08:00:17.281Z,16.54
2018-04-18T08:02:44.769Z,16.68
2018-04-18T08:05:12.322Z,16.71
2018-04-18T08:07:39.810Z,17.15
2018-04-18T08:10:07.653Z,17.34
2018-04-18T08:12:35.153Z,17.51
2018-04-18T08:15:02.642Z,17.65
2018-04-18T08:17:30.153Z,17.27
2018-04-18T08:19:57.673Z,17.62
2018-04-18T08:22:25.193Z,17.88
2018-04-18T08:24:52.697Z,17.62
2018-04-18T08:27:20.185Z,17.96
2018-04-18T08:29:47.693Z,18.16
2018-04-18T08:32:15.203Z,17.93
2018-04-18T08:34:43.378Z,18.15
2018-04-18T08:37:10.971Z,18.67
2018-04-18T08:39:38.471Z,18.91
2018-04-18T08:42:05.974Z,18.58
2018-04-18T08:44:33.803Z,18.69
2018-04-18T08:47:01.438Z,19.03
2018-04-18T08:49:28.938Z,19.17
2018-04-18T08:51:56.629Z,19.08
2018-04-18T08:54:24.141Z,19.24
2018-04-18T08:56:51.637Z,19.56
2018-04-18T08:59:19.169Z,19.49
2018-04-18T09:01:46.661Z,19.90
2018-04-18T09:04:14.149Z,19.79
2018-04-18T09:06:41.662Z,19.74
2018-04-18T09:09:09.169Z,19.92
2018-04-18T09:11:36.927Z,20.19
2018-04-18T09:14:04.413Z,20.20
2018-04-18T09:16:31.901Z,20.43
2018-04-18T09:18:59.416Z,20.89
2018-04-18T09:21:26.900Z,20.88
2018-04-18T09:23:54.718Z,21.15
2018-04-18T09:26:22.206Z,21.18
2018-04-18T09:28:49.704Z,21.49
2018-04-18T09:31:17.208Z,21.65
2018-04-18T09:33:44.693Z,21.53
2018-04-18T09:36:12.379Z,22.05
2018-04-18T09:38:39.857Z,22.23
2018-04-18T09:41:07.365Z,22.12
2018-04-18T09:43:34.898Z,22.15
2018-04-18T09:46:02.375Z,22.23
2018-04-18T09:48:30.189Z,22.05
2018-04-18T09:50:57.673Z,22.04
2018-04-18T09:53:25.161Z,22.30
2018-04-18T09:55:52.763Z,22.38
2018-04-18T09:58:20.316Z,22.34
2018-04-18T10:01:02.605Z,22.78
2018-04-18T10:03:30.086Z,22.96
2018-04-18T10:05:57.567Z,23.02
2018-04-18T10:08:25.096Z,22.63
2018-04-18T10:10:52.604Z,22.90
2018-04-18T10:13:20.149Z,22.80
2018-04-18T10:15:47.675Z,23.08
2018-04-18T10:18:15.192Z,23.48
2018-04-18T10:20:42.705Z,23.20
2018-04-18T10:23:10.212Z,23.15
2018-04-18T10:25:38.037Z,23.25
2018-04-18T10:28:05.527Z,23.45
2018-04-18T10:30:33.040Z,23.55
2018-04-18T10:33:00.566Z,23.83
2018-04-18T10:35:28.062Z,23.68
2018-04-18T10:37:55.736Z,23.67
2018-04-18T10:40:23.233Z,23.60
2018-04-18T10:42:50.729Z,23.69
2018-04-18T10:45:18.241Z,23.97
2018-04-18T10:47:45.741Z,24.10
2018-04-18T10:50:13.369Z,23.90
2018-04-18T10:52:40.884Z,23.77
2018-04-18T10:55:08.365Z,24.08
2018-04-18T10:57:35.881Z,24.29
2018-04-18T11:00:03.378Z,24.22
2018-04-18T11:02:31.112Z,24.20
2018-04-18T11:04:58.623Z,24.48
2018-04-18T11:07:26.123Z,24.62
2018-04-18T11:09:53.633Z,24.13
2018-04-18T11:12:21.115Z,24.39
2018-04-18T11:14:48.652Z,24.65
2018-04-18T11:17:16.149Z,24.48
2018-04-18T11:19:43.637Z,24.31
2018-04-18T11:22:11.152Z,24.46
2018-04-18T11:24:38.653Z,24.74
2018-04-18T11:27:06.273Z,24.35
2018-04-18T11:29:33.778Z,24.53
2018-04-18T11:32:01.257Z,24.77
2018-04-18T11:34:28.782Z,24.72
2018-04-18T11:36:56.277Z,24.77
2018-04-18T11:39:23.945Z,24.84
2018-04-18T11:41:51.429Z,24.82
2018-04-18T11:44:18.908Z,24.63
2018-04-18T11:46:46.418Z,25.00
2018-04-18T11:49:13.904Z,24.76
2018-04-18T11:51:41.625Z,24.88
2018-04-18T11:54:09.105Z,24.96
2018-04-18T11:56:36.701Z,24.89
2018-04-18T11:59:04.245Z,24.98
2018-04-18T12:01:31.725Z,24.97
2018-04-18T12:03:59.241Z,25.19
2018-04-18T12:06:26.769Z,24.92
2018-04-18T12:08:54.257Z,24.56
2018-04-18T12:11:21.796Z,24.74
2018-04-18T12:13:49.285Z,24.95
2018-04-18T12:16:16.950Z,24.90
2018-04-18T12:18:44.450Z,25.06
2018-04-18T12:21:11.945Z,24.93
2018-04-18T12:23:39.482Z,24.92
2018-04-18T12:26:06.966Z,25.16
2018-04-18T12:28:34.497Z,25.05
2018-04-18T12:31:01.989Z,24.91
2018-04-18T12:33:29.474Z,25.33
2018-04-18T12:35:57.001Z,25.19
2018-04-18T12:38:24.489Z,25.35
2018-04-18T12:40:52.001Z,24.95
2018-04-18T12:43:19.497Z,25.01
2018-04-18T12:45:47.261Z,25.17
2018-04-18T12:48:14.768Z,25.36
2018-04-18T12:50:42.254Z,25.40
2018-04-18T12:53:10.019Z,25.39
2018-04-18T12:55:37.516Z,25.29
2018-04-18T12:58:05.021Z,25.45
2018-04-18T13:00:32.530Z,25.23
2018-04-18T13:03:00.025Z,25.18
2018-04-18T13:05:27.670Z,25.32
2018-04-18T13:07:55.169Z,25.09
2018-04-18T13:10:22.649Z,25.25
2018-04-18T13:12:50.154Z,25.71
2018-04-18T13:15:17.650Z,25.39
2018-04-18T13:17:45.181Z,25.48
2018-04-18T13:20:12.665Z,25.46
2018-04-18T13:22:40.157Z,25.32
2018-04-18T13:25:07.670Z,25.64
2018-04-18T13:27:35.182Z,25.73
2018-04-18T13:30:02.706Z,25.40
2018-04-18T13:32:30.193Z,25.46
2018-04-18T13:34:57.669Z,25.41
2018-04-18T13:37:25.184Z,25.81
2018-04-18T13:39:52.748Z,25.72
2018-04-18T13:42:20.557Z,25.83
2018-04-18T13:44:48.050Z,25.63
2018-04-18T13:47:15.542Z,25.62
2018-04-18T13:49:43.049Z,25.60
2018-04-18T13:52:10.579Z,25.78
2018-04-18T13:54:38.149Z,25.77
2018-04-18T13:57:05.625Z,25.73
2018-04-18T13:59:33.110Z,25.78
2018-04-18T14:02:00.629Z,25.81
2018-04-18T14:04:28.192Z,25.76
2018-04-18T14:06:55.895Z,25.87
2018-04-18T14:09:23.389Z,25.72
2018-04-18T14:11:50.876Z,25.60
2018-04-18T14:14:18.434Z,25.65
2018-04-18T14:16:45.925Z,25.75
2018-04-18T14:19:13.513Z,25.97
2018-04-18T14:21:40.994Z,25.92
2018-04-18T14:24:08.490Z,25.77
2018-04-18T14:26:36.045Z,25.92
2018-04-18T14:29:03.540Z,26.01
2018-04-18T14:31:31.467Z,25.79
2018-04-18T14:33:58.945Z,25.83
2018-04-18T14:36:26.430Z,26.05
2018-04-18T14:38:53.937Z,25.77
2018-04-18T14:41:21.421Z,25.80
2018-04-18T14:43:48.961Z,25.98
2018-04-18T14:46:16.442Z,25.96
2018-04-18T14:48:43.931Z,25.88
2018-04-18T14:51:11.453Z,26.08
2018-04-18T14:53:38.936Z,25.91
2018-04-18T14:56:06.467Z,25.93
2018-04-18T14:58:33.964Z,25.93
2018-04-18T15:01:01.470Z,25.76
2018-04-18T15:03:28.972Z,25.94
2018-04-18T15:05:56.456Z,25.98
2018-04-18T15:08:24.321Z,26.14
2018-04-18T15:10:51.805Z,26.09
2018-04-18T15:13:19.290Z,26.14
2018-04-18T15:15:46.811Z,26.05
2018-04-18T15:18:14.295Z,26.07
2018-04-18T15:20:42.162Z,26.02
2018-04-18T15:23:09.649Z,26.11
2018-04-18T15:25:37.132Z,26.05
2018-04-18T15:28:04.666Z,26.03
2018-04-18T15:30:32.174Z,25.90
2018-04-18T15:32:59.846Z,25.91
2018-04-18T15:35:27.349Z,25.94
2018-04-18T15:37:54.825Z,26.01
2018-04-18T15:40:22.333Z,26.04
2018-04-18T15:42:49.829Z,26.00
2018-04-18T15:45:17.505Z,25.97
2018-04-18T15:47:45.109Z,25.90
2018-04-18T15:50:12.593Z,25.89
2018-04-18T15:52:40.103Z,25.91
2018-04-18T15:55:07.595Z,25.87
2018-04-18T15:57:35.141Z,25.97
2018-04-18T16:00:02.629Z,25.79
2018-04-18T16:02:30.105Z,25.73
2018-04-18T16:04:57.646Z,25.74
2018-04-18T16:07:25.124Z,25.84
2018-04-18T16:09:52.849Z,25.82
2018-04-18T16:12:20.325Z,25.75
2018-04-18T16:14:47.806Z,25.68
2018-04-18T16:17:15.311Z,25.68
2018-04-18T16:19:42.797Z,25.67
2018-04-18T16:22:10.313Z,25.73
2018-04-18T16:24:37.805Z,25.69
2018-04-18T16:27:05.300Z,25.62
2018-04-18T16:29:43.736Z,25.68
2018-04-18T16:32:11.213Z,25.57
2018-04-18T16:34:39.173Z,25.50
2018-04-18T16:37:06.689Z,25.53
2018-04-18T16:39:34.180Z,25.46
2018-04-18T16:42:01.727Z,25.46
2018-04-18T16:44:29.288Z,25.38
2018-04-18T16:46:56.817Z,25.34
2018-04-18T16:49:24.334Z,25.36
2018-04-18T16:51:51.819Z,25.27
2018-04-18T16:54:19.340Z,25.20
2018-04-18T16:56:46.823Z,25.22
2018-04-18T16:59:14.368Z,25.15
2018-04-18T17:01:41.853Z,25.13
2018-04-18T17:04:09.346Z,25.09
2018-04-18T17:06:36.913Z,25.16
2018-04-18T17:09:04.394Z,25.07
2018-04-18T17:11:32.141Z,24.97
2018-04-18T17:13:59.628Z,24.89
2018-04-18T17:16:27.121Z,24.84
2018-04-18T17:18:54.633Z,24.87
2018-04-18T17:21:22.121Z,24.68
2018-04-18T17:23:49.625Z,24.64
2018-04-18T17:26:17.113Z,24.54
2018-04-18T17:28:44.597Z,24.43
2018-04-18T17:31:12.101Z,24.21
2018-04-18T17:33:39.585Z,24.17
2018-04-18T17:36:07.062Z,24.06
2018-04-18T17:38:34.590Z,23.98
2018-04-18T17:41:02.144Z,23.77
2018-04-18T17:43:29.598Z,23.62
2018-04-18T17:45:57.101Z,23.50
2018-04-18T17:48:24.586Z,23.43
2018-04-18T17:50:52.165Z,23.35
2018-04-18T17:53:19.989Z,23.08
2018-04-18T17:55:47.477Z,23.05
2018-04-18T17:58:14.968Z,22.83
2018-04-18T18:00:42.822Z,22.54
2018-04-18T18:03:10.302Z,22.41
2018-04-18T18:05:37.782Z,22.19
2018-04-18T18:08:05.612Z,22.03
2018-04-18T18:10:33.113Z,21.76
2018-04-18T18:13:00.601Z,21.59
2018-04-18T18:15:28.301Z,21.25
2018-04-18T18:17:55.786Z,21.07
2018-04-18T18:20:23.291Z,20.98
2018-04-18T18:22:50.918Z,20.75
2018-04-18T18:25:18.423Z,20.44
2018-04-18T18:27:45.922Z,20.12
2018-04-18T18:30:13.454Z,19.96
2018-04-18T18:32:40.943Z,20.25
2018-04-18T18:35:08.421Z,20.25
2018-04-18T18:37:36.173Z,20.38
2018-04-18T18:40:03.675Z,20.15
2018-04-18T18:42:31.161Z,19.99
2018-04-18T18:44:58.869Z,19.87
2018-04-18T18:47:27.297Z,19.85
2018-04-18T18:49:54.793Z,19.49
2018-04-18T18:52:22.620Z,19.40
2018-04-18T18:54:50.371Z,19.18
2018-04-18T18:57:18.088Z,19.10
2018-04-18T18:59:45.958Z,19.16
2018-04-18T19:02:13.820Z,19.10
2018-04-18T19:04:42.037Z,19.19
2018-04-18T19:07:09.981Z,19.26
2018-04-18T19:09:38.045Z,19.34
2018-04-18T19:12:05.990Z,19.28
2018-04-18T19:14:33.998Z,19.27
2018-04-18T19:17:02.917Z,19.12
2018-04-18T19:19:30.971Z,18.97
2018-04-18T19:21:58.816Z,19.00
2018-04-18T19:24:26.501Z,18.95
2018-04-18T19:26:54.487Z,19.00
2018-04-18T19:29:22.437Z,18.94
2018-04-18T19:31:50.248Z,18.89
2018-04-18T19:34:17.891Z,18.86
2018-04-18T19:36:45.906Z,19.04
2018-04-18T19:39:15.380Z,19.13
2018-04-18T19:41:43.145Z,19.02
2018-04-18T19:44:11.285Z,19.00
2018-04-18T19:46:39.164Z,18.87
2018-04-18T19:49:07.254Z,19.00
2018-04-18T19:51:35.542Z,18.93
2018-04-18T19:54:03.410Z,18.87
2018-04-18T19:56:31.508Z,18.61
2018-04-18T19:58:59.128Z,18.60
2018-04-18T20:01:27.170Z,18.51
2018-04-18T20:03:55.037Z,18.56
2018-04-18T20:06:22.696Z,18.49
2018-04-18T20:08:50.247Z,18.39
2018-04-18T20:11:17.806Z,18.32
2018-04-18T20:13:46.337Z,18.28
2018-04-18T20:16:13.867Z,18.14
2018-04-18T20:18:41.385Z,18.26
2018-04-18T20:21:09.019Z,18.06
2018-04-18T20:23:36.506Z,17.96
2018-04-18T20:26:04.057Z,18.13
2018-04-18T20:28:31.549Z,17.92
2018-04-18T20:30:59.046Z,17.95
2018-04-18T20:33:26.587Z,17.88
2018-04-18T20:35:54.099Z,17.69
2018-04-18T20:38:21.625Z,17.71
2018-04-18T20:40:49.144Z,17.73
2018-04-18T20:43:16.638Z,17.65
2018-04-18T20:45:44.154Z,17.77
2018-04-18T20:48:11.661Z,17.62
2018-04-18T20:50:39.161Z,17.33
2018-04-18T20:53:06.682Z,16.98
2018-04-18T20:55:34.248Z,17.02
2018-04-18T20:58:01.707Z,17.08
2018-04-18T21:00:29.213Z,16.87
2018-04-18T21:02:56.693Z,16.67
2018-04-18T21:05:24.177Z,16.64
2018-04-18T21:07:51.685Z,16.70
2018-04-18T21:10:19.178Z,16.35
2018-04-18T21:12:46.675Z,16.42
2018-04-18T21:15:14.201Z,16.25
2018-04-18T21:17:41.701Z,16.35
2018-04-18T21:20:09.188Z,16.21
2018-04-18T21:22:36.693Z,16.43
2018-04-18T21:25:04.178Z,16.89
2018-04-18T21:27:31.765Z,16.37
2018-04-18T21:29:59.406Z,15.98
2018-04-18T21:32:26.892Z,15.90
2018-04-18T21:34:54.378Z,15.75
2018-04-18T21:37:22.237Z,15.68
2018-04-18T21:39:49.735Z,15.43
2018-04-18T21:42:17.213Z,15.36
2018-04-18T21:44:44.805Z,15.23
2018-04-18T21:47:12.293Z,14.97
2018-04-18T21:49:39.772Z,15.09
2018-04-18T21:52:07.528Z,14.90
2018-04-18T21:54:35.013Z,14.88
2018-04-18T21:57:02.489Z,14.69
2018-04-18T21:59:30.161Z,14.71
2018-04-18T22:01:57.637Z,14.63
2018-04-18T22:04:25.172Z,14.75
2018-04-18T22:06:52.776Z,14.41
2018-04-18T22:09:20.280Z,14.12
2018-04-18T22:11:47.765Z,14.19
2018-04-18T22:14:15.281Z,14.25
2018-04-18T22:16:42.780Z,14.03
2018-04-18T22:19:10.261Z,14.19
2018-04-18T22:21:37.904Z,14.07
2018-04-18T22:24:05.385Z,14.16
2018-04-18T22:26:32.868Z,13.77
2018-04-18T22:29:00.621Z,13.77
2018-04-18T22:31:28.103Z,13.75
2018-04-18T22:33:55.587Z,13.74
2018-04-18T22:36:23.341Z,13.94
2018-04-18T22:38:50.831Z,13.63
2018-04-18T22:41:18.317Z,13.45
2018-04-18T22:43:45.833Z,13.28
2018-04-18T22:46:13.325Z,13.38
2018-04-18T22:48:40.814Z,13.31
2018-04-18T22:51:08.353Z,13.60
2018-04-18T22:53:35.837Z,13.31
2018-04-18T22:56:03.318Z,13.11
2018-04-18T22:58:30.825Z,13.02
2018-04-18T23:00:58.308Z,13.07
2018-04-18T23:03:25.825Z,12.93
2018-04-18T23:05:53.309Z,13.07
2018-04-18T23:08:20.785Z,13.18
2018-04-18T23:10:48.292Z,12.89
2018-04-18T23:13:15.792Z,12.83
2018-04-18T23:15:43.573Z,13.01
2018-04-18T23:18:11.067Z,12.84
2018-04-18T23:20:38.558Z,12.99
2018-04-18T23:23:06.069Z,12.99
2018-04-18T23:25:33.559Z,12.65
2018-04-18T23:28:01.225Z,12.71
2018-04-18T23:30:28.731Z,12.46
2018-04-18T23:32:56.214Z,12.65
2018-04-18T23:35:23.724Z,12.78
2018-04-18T23:37:51.229Z,12.77
2018-04-18T23:40:18.985Z,12.13
2018-04-18T23:42:46.469Z,12.33
2018-04-18T23:45:13.953Z,12.13
2018-04-18T23:47:41.461Z,12.31
2018-04-18T23:50:08.950Z,12.55
2018-04-18T23:52:36.486Z,12.50
2018-04-18T23:55:04.037Z,12.64
2018-04-18T23:57:31.537Z,12.51
2018-04-18T23:59:59.053Z,12.31
